createdAt,value
2019-06-20T00:02:24.705Z,99.90
2019-06-20T00:04:53.703Z,99.90
2019-06-20T00:07:22.620Z,99.90
2019-06-20T00:09:52.486Z,99.90
2019-06-20T00:12:21.610Z,99.90
2019-06-20T00:14:50.539Z,99.90
2019-06-20T00:17:19.413Z,99.90
2019-06-20T00:19:48.397Z,99.90
2019-06-20T00:22:17.387Z,99.90
2019-06-20T00:24:46.579Z,99.90
2019-06-20T00:27:15.439Z,99.90
2019-06-20T00:29:44.568Z,99.90
2019-06-20T00:32:13.491Z,99.90
2019-06-20T00:34:42.499Z,99.90
2019-06-20T00:37:11.944Z,99.90
2019-06-20T00:39:40.868Z,99.90
2019-06-20T00:42:10.231Z,99.90
2019-06-20T00:44:39.176Z,99.90
2019-06-20T00:47:08.525Z,99.90
2019-06-20T00:49:38.230Z,99.90
2019-06-20T00:52:07.507Z,99.90
2019-06-20T00:54:36.550Z,99.90
2019-06-20T00:57:05.605Z,99.90
2019-06-20T00:59:34.978Z,99.90
2019-06-20T01:02:04.433Z,99.90
2019-06-20T01:04:33.933Z,99.90
2019-06-20T01:07:03.125Z,99.90
2019-06-20T01:09:32.542Z,99.90
2019-06-20T01:12:01.551Z,99.90
2019-06-20T01:14:30.417Z,99.90
2019-06-20T01:16:59.450Z,99.90
2019-06-20T01:19:28.493Z,99.90
2019-06-20T01:21:57.435Z,99.90
2019-06-20T01:24:26.900Z,99.90
2019-06-20T01:26:55.855Z,99.90
2019-06-20T01:29:24.876Z,99.90
2019-06-20T01:31:53.913Z,99.90
2019-06-20T01:34:23.284Z,99.90
2019-06-20T01:36:52.348Z,99.90
2019-06-20T01:39:21.348Z,99.90
2019-06-20T01:41:50.366Z,99.90
2019-06-20T01:44:19.307Z,99.90
2019-06-20T01:46:48.252Z,99.90
2019-06-20T01:49:17.271Z,99.90
2019-06-20T01:51:46.215Z,99.90
2019-06-20T01:54:15.278Z,99.90
2019-06-20T01:56:44.157Z,99.90
2019-06-20T01:59:13.188Z,99.90
2019-06-20T02:01:42.292Z,99.90
2019-06-20T02:04:11.509Z,99.90
2019-06-20T02:06:40.536Z,99.90
2019-06-20T02:09:09.689Z,99.90
2019-06-20T02:11:38.697Z,99.90
2019-06-20T02:14:07.806Z,99.90
2019-06-20T02:16:36.971Z,99.90
2019-06-20T02:19:06.529Z,99.90
2019-06-20T02:21:35.576Z,99.90
2019-06-20T02:24:04.616Z,99.90
2019-06-20T02:26:33.467Z,99.90
2019-06-20T02:29:02.518Z,99.90
2019-06-20T02:31:31.591Z,99.90
2019-06-20T02:34:00.971Z,99.90
2019-06-20T02:36:29.838Z,99.90
2019-06-20T02:38:58.808Z,99.90
2019-06-20T02:41:27.727Z,99.90
2019-06-20T02:43:56.744Z,99.90
2019-06-20T02:46:26.036Z,99.90
2019-06-20T02:48:55.043Z,99.90
2019-06-20T02:51:25.828Z,99.90
2019-06-20T02:53:54.844Z,99.90
2019-06-20T02:56:23.836Z,99.90
2019-06-20T02:58:52.836Z,99.90
2019-06-20T03:01:21.848Z,99.90
2019-06-20T03:03:50.712Z,99.90
2019-06-20T03:06:19.739Z,99.90
2019-06-20T03:08:48.635Z,99.90
2019-06-20T03:11:17.670Z,99.90
2019-06-20T03:13:46.607Z,99.90
2019-06-20T03:16:15.611Z,99.90
2019-06-20T03:18:44.548Z,99.90
2019-06-20T03:21:13.492Z,99.90
2019-06-20T03:23:42.363Z,99.90
2019-06-20T03:26:11.356Z,99.90
2019-06-20T03:28:40.264Z,99.90
2019-06-20T03:31:09.554Z,99.90
2019-06-20T03:33:38.566Z,99.90
2019-06-20T03:36:07.512Z,99.90
2019-06-20T03:38:36.978Z,99.90
2019-06-20T03:41:06.270Z,99.90
2019-06-20T03:43:35.288Z,99.90
2019-06-20T03:46:04.330Z,99.90
2019-06-20T03:48:33.216Z,99.90
2019-06-20T03:51:02.142Z,99.90
2019-06-20T03:53:31.183Z,99.90
2019-06-20T03:56:00.461Z,99.90
2019-06-20T03:58:29.450Z,99.90
2019-06-20T04:00:58.472Z,99.90
2019-06-20T04:03:27.508Z,99.90
2019-06-20T04:05:56.468Z,99.90
2019-06-20T04:08:26.080Z,99.90
2019-06-20T04:10:55.122Z,99.90
2019-06-20T04:13:24.095Z,99.90
2019-06-20T04:15:53.060Z,99.90
2019-06-20T04:18:22.094Z,99.90
2019-06-20T04:20:51.040Z,99.90
2019-06-20T04:23:19.915Z,99.90
2019-06-20T04:25:48.767Z,99.90
2019-06-20T04:28:17.755Z,99.90
2019-06-20T04:30:46.716Z,99.90
2019-06-20T04:33:15.953Z,99.90
2019-06-20T04:35:44.905Z,99.90
2019-06-20T04:38:13.872Z,99.90
2019-06-20T04:40:42.968Z,99.90
2019-06-20T04:43:11.809Z,99.90
2019-06-20T04:45:46.651Z,99.90
2019-06-20T04:48:15.504Z,99.90
2019-06-20T04:50:44.437Z,99.90
2019-06-20T04:53:13.442Z,99.90
2019-06-20T04:55:42.376Z,99.90
2019-06-20T04:58:11.305Z,99.90
2019-06-20T05:00:40.316Z,99.90
2019-06-20T05:03:09.331Z,99.90
2019-06-20T05:05:38.251Z,99.90
2019-06-20T05:08:07.123Z,99.90
2019-06-20T05:10:36.140Z,99.90
2019-06-20T05:13:05.429Z,99.90
2019-06-20T05:15:51.099Z,99.90
2019-06-20T05:18:05.468Z,99.90
2019-06-20T05:20:34.741Z,99.90
2019-06-20T05:23:03.956Z,99.90
2019-06-20T05:25:33.126Z,99.90
2019-06-20T05:28:02.248Z,99.90
2019-06-20T05:30:31.453Z,99.90
2019-06-20T05:33:00.292Z,99.90
2019-06-20T05:35:29.281Z,99.90
2019-06-20T05:37:58.256Z,99.90
2019-06-20T05:40:27.269Z,99.90
2019-06-20T05:42:56.109Z,99.90
2019-06-20T05:45:25.103Z,99.90
2019-06-20T05:47:53.961Z,99.90
2019-06-20T05:50:22.961Z,99.90
2019-06-20T05:52:52.859Z,99.90
2019-06-20T05:55:22.008Z,99.90
2019-06-20T05:57:50.852Z,99.90
2019-06-20T06:00:21.623Z,99.90
2019-06-20T06:02:50.537Z,99.90
2019-06-20T06:05:19.463Z,99.90
2019-06-20T06:07:50.403Z,99.90
2019-06-20T06:10:19.656Z,99.90
2019-06-20T06:12:48.655Z,99.90
2019-06-20T06:15:19.115Z,99.90
2019-06-20T06:17:48.347Z,99.90
2019-06-20T06:20:18.439Z,99.90
2019-06-20T06:22:47.437Z,99.90
2019-06-20T06:25:16.590Z,99.90
2019-06-20T06:27:45.986Z,99.90
2019-06-20T06:30:15.579Z,99.90
2019-06-20T06:32:44.889Z,99.90
2019-06-20T06:35:13.920Z,99.90
2019-06-20T06:37:43.175Z,99.90
2019-06-20T06:40:14.952Z,99.90
2019-06-20T06:42:44.170Z,99.90
2019-06-20T06:45:14.042Z,99.90
2019-06-20T06:47:43.445Z,99.90
2019-06-20T06:50:13.052Z,99.90
2019-06-20T06:52:42.360Z,99.90
2019-06-20T06:55:11.963Z,99.90
2019-06-20T06:57:41.997Z,99.90
2019-06-20T07:00:11.798Z,99.90
2019-06-20T07:02:40.799Z,99.90
2019-06-20T07:05:10.704Z,99.90
2019-06-20T07:07:40.431Z,99.90
2019-06-20T07:10:10.678Z,99.90
2019-06-20T07:12:40.384Z,99.90
2019-06-20T07:15:10.479Z,99.90
2019-06-20T07:17:39.452Z,99.90
2019-06-20T07:20:09.283Z,99.90
2019-06-20T07:22:38.571Z,99.90
2019-06-20T07:25:08.988Z,99.90
2019-06-20T07:27:37.859Z,99.90
2019-06-20T07:30:07.564Z,99.90
2019-06-20T07:32:36.598Z,99.90
2019-06-20T07:35:07.583Z,99.90
2019-06-20T07:37:36.693Z,99.90
2019-06-20T07:40:06.265Z,99.90
2019-06-20T07:42:35.398Z,99.90
2019-06-20T07:45:05.403Z,99.90
2019-06-20T07:47:34.521Z,99.90
2019-06-20T07:50:03.476Z,99.90
2019-06-20T07:52:32.372Z,99.90
2019-06-20T07:55:01.600Z,99.90
2019-06-20T07:57:30.524Z,99.90
2019-06-20T07:59:59.549Z,99.90
2019-06-20T08:02:28.575Z,99.90
2019-06-20T08:04:57.567Z,99.90
2019-06-20T08:07:26.436Z,99.90
2019-06-20T08:09:55.409Z,99.90
2019-06-20T08:12:24.422Z,99.90
2019-06-20T08:14:53.355Z,99.90
2019-06-20T08:17:34.861Z,99.90
2019-06-20T08:19:53.728Z,99.90
2019-06-20T08:22:22.849Z,99.90
2019-06-20T08:24:53.238Z,99.90
2019-06-20T08:27:41.809Z,99.90
2019-06-20T08:30:11.624Z,99.90
2019-06-20T08:32:40.659Z,99.90
2019-06-20T08:35:09.774Z,99.90
2019-06-20T08:37:38.801Z,99.90
2019-06-20T08:40:07.932Z,99.90
2019-06-20T08:42:37.437Z,99.90
2019-06-20T08:45:06.986Z,99.90
2019-06-20T08:47:36.265Z,99.90
2019-06-20T08:50:06.171Z,99.90
2019-06-20T08:52:35.698Z,99.90
2019-06-20T08:55:05.522Z,99.90
2019-06-20T08:57:34.850Z,99.90
2019-06-20T09:02:33.621Z,99.90
2019-06-20T09:07:31.846Z,99.90
2019-06-20T09:10:01.958Z,99.90
2019-06-20T09:12:31.105Z,99.90
2019-06-20T09:15:01.187Z,99.90
2019-06-20T09:17:30.682Z,99.90
2019-06-20T09:20:00.255Z,99.90
2019-06-20T09:22:29.342Z,99.90
2019-06-20T09:24:58.679Z,99.90
2019-06-20T09:27:27.955Z,99.90
2019-06-20T09:29:56.906Z,99.90
2019-06-20T09:32:25.874Z,99.90
2019-06-20T09:34:54.892Z,99.90
2019-06-20T09:37:24.155Z,99.90
2019-06-20T09:39:53.351Z,99.90
2019-06-20T09:42:22.349Z,99.90
2019-06-20T09:44:52.641Z,99.90
2019-06-20T09:47:22.349Z,99.90
2019-06-20T09:49:55.228Z,99.90
2019-06-20T09:52:21.948Z,99.90
2019-06-20T09:54:51.710Z,99.90
2019-06-20T09:57:20.889Z,99.90
2019-06-20T10:00:02.829Z,99.90
2019-06-20T10:02:20.781Z,99.90
2019-06-20T10:04:50.680Z,99.90
2019-06-20T10:07:20.022Z,99.90
2019-06-20T10:09:49.919Z,99.90
2019-06-20T10:12:19.168Z,99.90
2019-06-20T10:14:49.501Z,99.90
2019-06-20T10:17:18.716Z,99.90
2019-06-20T10:19:48.386Z,99.90
2019-06-20T10:22:17.801Z,99.90
2019-06-20T10:24:47.438Z,99.90
2019-06-20T10:27:16.549Z,99.90
2019-06-20T10:29:46.194Z,99.90
2019-06-20T10:32:16.534Z,99.90
2019-06-20T10:34:46.689Z,99.90
2019-06-20T10:37:16.091Z,99.90
2019-06-20T10:39:46.098Z,99.90
2019-06-20T10:42:15.384Z,99.90
2019-06-20T10:44:45.765Z,99.90
2019-06-20T10:47:15.388Z,99.90
2019-06-20T10:49:45.130Z,99.90
2019-06-20T10:52:15.217Z,99.90
2019-06-20T10:54:46.994Z,99.90
2019-06-20T10:57:15.965Z,99.90
2019-06-20T10:59:46.510Z,99.90
2019-06-20T11:02:15.575Z,99.90
2019-06-20T11:04:45.642Z,99.90
2019-06-20T11:07:14.977Z,99.90
2019-06-20T11:09:45.185Z,99.90
2019-06-20T11:12:14.317Z,99.90
2019-06-20T11:14:44.150Z,99.90
2019-06-20T11:17:13.136Z,99.90
2019-06-20T11:19:43.765Z,99.90
2019-06-20T11:22:12.816Z,99.90
2019-06-20T11:24:43.014Z,99.90
2019-06-20T11:27:12.591Z,99.90
2019-06-20T11:29:41.924Z,99.90
2019-06-20T11:32:10.779Z,99.90
2019-06-20T11:34:40.283Z,99.90
2019-06-20T11:37:09.623Z,99.90
2019-06-20T11:39:38.922Z,99.90
2019-06-20T11:42:08.800Z,99.90
2019-06-20T11:44:38.841Z,99.90
2019-06-20T11:47:08.216Z,99.90
2019-06-20T11:49:38.182Z,99.90
2019-06-20T11:52:08.562Z,99.90
2019-06-20T11:54:38.618Z,99.90
2019-06-20T11:57:07.892Z,99.90
2019-06-20T11:59:36.823Z,99.90
2019-06-20T12:02:05.862Z,99.90
2019-06-20T12:04:34.876Z,99.90
2019-06-20T12:07:04.251Z,99.90
2019-06-20T12:09:36.453Z,99.90
2019-06-20T12:12:04.270Z,99.90
2019-06-20T12:14:33.541Z,99.90
2019-06-20T12:17:02.552Z,99.90
2019-06-20T12:19:31.887Z,99.90
2019-06-20T12:22:00.804Z,99.90
2019-06-20T12:24:30.084Z,99.90
2019-06-20T12:26:59.558Z,99.90
2019-06-20T12:29:28.481Z,99.90
2019-06-20T12:31:59.054Z,99.90
2019-06-20T12:34:28.621Z,99.90
2019-06-20T12:36:57.657Z,99.90
2019-06-20T12:39:26.937Z,99.90
2019-06-20T12:41:56.204Z,99.90
2019-06-20T12:44:25.609Z,99.90
2019-06-20T12:46:54.904Z,99.90
2019-06-20T12:49:24.157Z,99.90
2019-06-20T12:51:53.712Z,99.90
2019-06-20T12:54:22.951Z,99.90
2019-06-20T12:56:52.113Z,99.90
2019-06-20T12:59:21.401Z,99.90
2019-06-20T13:01:51.145Z,99.90
2019-06-20T13:04:20.936Z,99.90
2019-06-20T13:06:50.166Z,99.90
2019-06-20T13:09:19.429Z,99.90
2019-06-20T13:11:49.279Z,99.90
2019-06-20T13:14:18.645Z,99.90
2019-06-20T13:16:48.153Z,99.90
2019-06-20T13:19:17.351Z,99.90
2019-06-20T13:21:46.598Z,99.90
2019-06-20T13:24:15.585Z,99.90
2019-06-20T13:26:44.558Z,99.90
2019-06-20T13:29:13.935Z,99.90
2019-06-20T13:32:00.562Z,99.90
2019-06-20T13:34:14.393Z,99.90
2019-06-20T13:36:43.203Z,99.90
2019-06-20T13:39:12.460Z,99.90
2019-06-20T13:41:43.085Z,99.90
2019-06-20T13:44:14.391Z,99.90
2019-06-20T13:46:44.571Z,99.90
2019-06-20T13:49:13.859Z,99.90
2019-06-20T13:51:43.401Z,99.90
2019-06-20T13:54:12.685Z,99.90
2019-06-20T13:56:42.505Z,99.90
2019-06-20T13:59:13.029Z,99.90
2019-06-20T14:01:44.043Z,99.90
2019-06-20T14:04:14.188Z,99.90
2019-06-20T14:06:43.881Z,99.90
2019-06-20T14:09:13.875Z,99.90
2019-06-20T14:11:43.235Z,99.90
2019-06-20T14:14:12.318Z,99.90
2019-06-20T14:16:42.966Z,99.90
2019-06-20T14:19:11.959Z,99.90
2019-06-20T14:21:42.708Z,99.90
2019-06-20T14:24:11.842Z,99.90
2019-06-20T14:26:43.436Z,99.90
2019-06-20T14:29:12.482Z,99.90
2019-06-20T14:31:42.640Z,99.90
2019-06-20T14:34:12.297Z,99.90
2019-06-20T14:36:41.262Z,99.90
2019-06-20T14:39:10.504Z,99.90
2019-06-20T14:41:39.453Z,99.90
2019-06-20T14:44:08.573Z,99.90
2019-06-20T14:46:37.607Z,99.90
2019-06-20T14:49:06.690Z,99.90
2019-06-20T14:51:35.846Z,99.90
2019-06-20T14:54:04.947Z,99.90
2019-06-20T14:56:34.090Z,99.90
2019-06-20T14:59:03.172Z,99.10
2019-06-20T15:01:32.257Z,98.80
2019-06-20T15:04:01.148Z,99.10
2019-06-20T15:06:30.137Z,98.70
2019-06-20T15:09:04.836Z,98.50
2019-06-20T15:11:29.751Z,99.00
2019-06-20T15:13:58.727Z,99.20
2019-06-20T15:16:27.828Z,99.70
2019-06-20T15:18:57.236Z,99.60
2019-06-20T15:21:26.374Z,99.90
2019-06-20T15:23:56.682Z,99.90
2019-06-20T15:26:26.017Z,99.90
2019-06-20T15:28:55.577Z,99.90
2019-06-20T15:31:26.156Z,99.90
2019-06-20T15:33:55.224Z,99.90
2019-06-20T15:36:24.143Z,99.90
2019-06-20T15:38:55.040Z,99.90
2019-06-20T15:41:24.404Z,99.90
2019-06-20T15:43:53.777Z,99.90
2019-06-20T15:46:23.156Z,99.50
2019-06-20T15:48:52.337Z,99.60
2019-06-20T15:51:21.842Z,99.80
2019-06-20T15:53:51.149Z,99.50
2019-06-20T15:56:20.336Z,99.70
2019-06-20T15:58:49.365Z,99.70
2019-06-20T16:01:18.307Z,99.00
2019-06-20T16:03:47.262Z,99.60
2019-06-20T16:06:16.187Z,99.60
2019-06-20T16:08:45.116Z,99.80
2019-06-20T16:11:14.070Z,99.90
2019-06-20T16:13:43.144Z,99.90
2019-06-20T16:16:12.151Z,99.90
2019-06-20T16:18:41.415Z,99.90
2019-06-20T16:21:10.404Z,99.90
2019-06-20T16:23:39.986Z,99.80
2019-06-20T16:26:08.868Z,99.90
2019-06-20T16:28:37.869Z,98.60
2019-06-20T16:31:13.205Z,97.90
2019-06-20T16:33:37.812Z,96.90
2019-06-20T16:36:07.616Z,96.80
2019-06-20T16:38:36.912Z,96.60
2019-06-20T16:41:06.808Z,96.70
2019-06-20T16:43:36.130Z,97.60
2019-06-20T16:46:05.251Z,97.60
2019-06-20T16:48:34.175Z,95.90
2019-06-20T16:51:03.129Z,95.30
2019-06-20T16:53:32.093Z,94.80
2019-06-20T16:56:01.020Z,95.10
2019-06-20T16:58:30.385Z,95.60
2019-06-20T17:01:00.001Z,95.60
2019-06-20T17:03:41.205Z,95.50
2019-06-20T17:06:01.260Z,95.30
2019-06-20T17:08:30.562Z,95.90
2019-06-20T17:10:59.473Z,95.90
2019-06-20T17:13:28.456Z,95.90
2019-06-20T17:15:57.407Z,96.30
2019-06-20T17:18:26.417Z,96.80
2019-06-20T17:20:55.739Z,97.00
2019-06-20T17:23:25.351Z,97.50
2019-06-20T17:25:54.677Z,97.40
2019-06-20T17:28:24.244Z,97.30
2019-06-20T17:30:53.962Z,97.30
2019-06-20T17:33:23.162Z,97.80
2019-06-20T17:35:52.572Z,98.40
2019-06-20T17:38:22.537Z,99.00
2019-06-20T17:40:51.513Z,99.60
2019-06-20T17:43:21.114Z,99.90
2019-06-20T17:45:50.408Z,99.90
2019-06-20T17:48:19.475Z,99.90
2019-06-20T17:50:48.571Z,99.90
2019-06-20T17:53:17.980Z,99.90
2019-06-20T17:55:48.055Z,99.90
2019-06-20T17:58:17.514Z,99.90
2019-06-20T18:00:46.595Z,99.90
2019-06-20T18:03:15.915Z,99.90
2019-06-20T18:05:44.936Z,99.90
2019-06-20T18:08:15.457Z,99.90
2019-06-20T18:10:44.597Z,99.90
2019-06-20T18:13:14.135Z,99.90
2019-06-20T18:15:43.350Z,99.90
2019-06-20T18:18:12.412Z,99.90
2019-06-20T18:20:41.351Z,99.90
2019-06-20T18:23:10.395Z,99.90
2019-06-20T18:25:39.623Z,99.90
2019-06-20T18:28:08.673Z,99.90
2019-06-20T18:30:42.190Z,99.90
2019-06-20T18:33:11.225Z,99.90
2019-06-20T18:35:40.649Z,99.90
2019-06-20T18:38:11.177Z,99.90
2019-06-20T18:40:40.822Z,99.90
2019-06-20T18:43:10.526Z,99.90
2019-06-20T18:45:40.550Z,99.90
2019-06-20T18:48:09.944Z,99.90
2019-06-20T18:50:38.985Z,99.90
2019-06-20T18:53:08.075Z,99.90
2019-06-20T18:55:37.639Z,99.90
2019-06-20T18:58:07.048Z,99.90
2019-06-20T19:00:36.133Z,99.90
2019-06-20T19:03:06.144Z,99.90
2019-06-20T19:05:35.311Z,99.90
2019-06-20T19:08:04.376Z,99.90
2019-06-20T19:10:33.811Z,99.90
2019-06-20T19:13:04.775Z,99.90
2019-06-20T19:15:34.615Z,99.90
2019-06-20T19:18:03.664Z,99.90
2019-06-20T19:20:33.632Z,99.90
2019-06-20T19:23:03.411Z,99.90
2019-06-20T19:25:32.576Z,99.90
2019-06-20T19:28:01.740Z,99.90
2019-06-20T19:30:50.601Z,99.90
2019-06-20T19:33:20.453Z,99.90
2019-06-20T19:35:50.018Z,99.90
2019-06-20T19:38:19.122Z,99.90
2019-06-20T19:40:49.741Z,99.90
2019-06-20T19:43:19.009Z,99.90
2019-06-20T19:45:48.935Z,99.90
2019-06-20T19:48:18.252Z,99.90
2019-06-20T19:50:47.552Z,99.90
2019-06-20T19:53:16.684Z,99.90
2019-06-20T19:55:46.002Z,99.90
2019-06-20T19:58:15.644Z,99.90
2019-06-20T20:00:46.291Z,99.90
2019-06-20T20:03:15.500Z,99.90
2019-06-20T20:05:45.664Z,99.90
2019-06-20T20:08:15.192Z,99.90
2019-06-20T20:10:46.124Z,99.90
2019-06-20T20:13:19.060Z,99.90
2019-06-20T20:15:48.097Z,99.90
2019-06-20T20:18:17.263Z,99.90
2019-06-20T20:20:47.644Z,99.90
2019-06-20T20:23:17.069Z,99.90
2019-06-20T20:25:46.238Z,99.90
2019-06-20T20:28:15.355Z,99.90
2019-06-20T20:30:44.793Z,99.90
2019-06-20T20:33:13.909Z,99.90
2019-06-20T20:35:43.099Z,99.90
2019-06-20T20:38:12.691Z,99.90
2019-06-20T20:40:42.336Z,99.90
2019-06-20T20:43:11.492Z,99.90
2019-06-20T20:45:41.103Z,99.90
2019-06-20T20:48:10.506Z,99.90
2019-06-20T20:50:39.550Z,99.90
2019-06-20T20:53:09.102Z,99.90
2019-06-20T20:55:38.240Z,99.90
2019-06-20T20:58:07.265Z,99.90
2019-06-20T21:00:55.568Z,99.90
2019-06-20T21:03:24.901Z,99.90
2019-06-20T21:05:53.893Z,99.90
2019-06-20T21:08:23.319Z,99.90
2019-06-20T21:10:52.740Z,99.90
2019-06-20T21:13:21.861Z,99.90
2019-06-20T21:15:50.987Z,99.90
2019-06-20T21:18:19.916Z,99.90
2019-06-20T21:20:49.475Z,99.90
2019-06-20T21:23:19.037Z,99.90
2019-06-20T21:25:48.214Z,99.90
2019-06-20T21:28:17.213Z,99.90
2019-06-20T21:30:46.327Z,99.90
2019-06-20T21:33:16.027Z,99.90
2019-06-20T21:35:45.105Z,99.90
2019-06-20T21:38:15.045Z,99.90
2019-06-20T21:40:44.607Z,99.90
2019-06-20T21:43:14.176Z,99.90
2019-06-20T21:45:43.184Z,99.90
2019-06-20T21:48:12.167Z,99.90
2019-06-20T21:50:41.447Z,99.90
2019-06-20T21:53:10.854Z,99.90
2019-06-20T21:55:40.262Z,99.90
2019-06-20T21:58:10.100Z,99.90
2019-06-20T22:00:43.635Z,99.90
2019-06-20T22:03:12.879Z,99.90
2019-06-20T22:05:42.108Z,99.90
2019-06-20T22:08:11.156Z,99.90
2019-06-20T22:10:40.211Z,99.90
2019-06-20T22:13:09.322Z,99.90
2019-06-20T22:15:38.513Z,99.90
2019-06-20T22:18:07.564Z,99.90
2019-06-20T22:20:36.686Z,99.90
2019-06-20T22:23:06.162Z,99.90
2019-06-20T22:25:35.260Z,99.90
2019-06-20T22:28:04.960Z,99.90
2019-06-20T22:30:54.852Z,99.90
2019-06-20T22:33:24.053Z,99.90
2019-06-20T22:35:53.112Z,99.90
2019-06-20T22:38:22.165Z,99.90
2019-06-20T22:40:51.200Z,99.90
2019-06-20T22:43:20.358Z,99.90
2019-06-20T22:45:49.724Z,99.90
2019-06-20T22:48:19.096Z,99.90
2019-06-20T22:50:48.171Z,99.90
2019-06-20T22:53:17.056Z,99.90
2019-06-20T22:55:46.602Z,99.90
2019-06-20T22:58:16.310Z,99.90
2019-06-20T23:00:45.417Z,99.90
2019-06-20T23:03:14.556Z,99.90
2019-06-20T23:05:44.025Z,99.90
2019-06-20T23:08:13.431Z,99.90
2019-06-20T23:10:42.814Z,99.90
2019-06-20T23:13:12.242Z,99.90
2019-06-20T23:15:41.707Z,99.90
2019-06-20T23:18:10.907Z,99.90
2019-06-20T23:20:40.349Z,99.90
2019-06-20T23:23:09.928Z,99.90
2019-06-20T23:25:40.668Z,99.90
2019-06-20T23:28:10.053Z,99.90
2019-06-20T23:30:39.315Z,99.90
2019-06-20T23:33:08.815Z,99.90
2019-06-20T23:35:38.168Z,99.90
2019-06-20T23:38:07.505Z,99.90
2019-06-20T23:40:36.948Z,99.90
2019-06-20T23:43:06.401Z,99.90
2019-06-20T23:45:35.380Z,99.90
2019-06-20T23:48:04.448Z,99.90
2019-06-20T23:50:33.512Z,99.90
2019-06-20T23:53:18.115Z,99.90
2019-06-20T23:55:47.140Z,99.90
2019-06-20T23:58:16.502Z,99.90
